sensor_id;sensor_type;location;lat;lon;timestamp;P1;durP1;ratioP1;P2;durP2;ratioP2
13969;SDS011;7057;49.984;8.404;2024-03-02T00:02:17;13.93;;;10.90;;
13969;SDS011;7057;49.984;8.404;2024-03-02T00:04:44;13.30;;;11.17;;
13969;SDS011;7057;49.984;8.404;2024-03-02T00:07:12;12.67;;;11.07;;
13969;SDS011;7057;49.984;8.404;2024-03-02T00:09:41;12.93;;;11.50;;
13969;SDS011;7057;49.984;8.404;2024-03-02T00:12:09;12.50;;;11.20;;
13969;SDS011;7057;49.984;8.404;2024-03-02T00:14:39;12.97;;;10.97;;
13969;SDS011;7057;49.984;8.404;2024-03-02T00:17:06;12.87;;;10.43;;
13969;SDS011;7057;49.984;8.404;2024-03-02T00:19:39;12.67;;;10.93;;
13969;SDS011;7057;49.984;8.404;2024-03-02T00:22:07;15.07;;;11.90;;
13969;SDS011;7057;49.984;8.404;2024-03-02T00:24:34;12.80;;;11.43;;
13969;SDS011;7057;49.984;8.404;2024-03-02T00:27:03;14.07;;;11.73;;
13969;SDS011;7057;49.984;8.404;2024-03-02T00:29:31;13.43;;;11.37;;
13969;SDS011;7057;49.984;8.404;2024-03-02T00:31:58;12.53;;;10.80;;
13969;SDS011;7057;49.984;8.404;2024-03-02T00:34:26;14.73;;;11.37;;
13969;SDS011;7057;49.984;8.404;2024-03-02T00:36:56;13.90;;;11.37;;
13969;SDS011;7057;49.984;8.404;2024-03-02T00:39:25;13.33;;;11.20;;
13969;SDS011;7057;49.984;8.404;2024-03-02T00:41:52;13.03;;;11.30;;
13969;SDS011;7057;49.984;8.404;2024-03-02T00:44:20;14.73;;;11.33;;
13969;SDS011;7057;49.984;8.404;2024-03-02T00:46:49;13.63;;;10.37;;
13969;SDS011;7057;49.984;8.404;2024-03-02T00:49:17;12.07;;;10.87;;
13969;SDS011;7057;49.984;8.404;2024-03-02T00:51:46;12.43;;;10.80;;
13969;SDS011;7057;49.984;8.404;2024-03-02T00:54:18;14.73;;;10.67;;
13969;SDS011;7057;49.984;8.404;2024-03-02T00:56:46;12.27;;;10.80;;
13969;SDS011;7057;49.984;8.404;2024-03-02T00:59:14;14.17;;;11.17;;
13969;SDS011;7057;49.984;8.404;2024-03-02T01:01:41;14.43;;;10.77;;
13969;SDS011;7057;49.984;8.404;2024-03-02T01:04:09;15.03;;;11.10;;
13969;SDS011;7057;49.984;8.404;2024-03-02T01:06:37;12.60;;;10.87;;
13969;SDS011;7057;49.984;8.404;2024-03-02T01:09:04;13.60;;;11.07;;
13969;SDS011;7057;49.984;8.404;2024-03-02T01:11:33;12.50;;;11.10;;
13969;SDS011;7057;49.984;8.404;2024-03-02T01:14:01;13.57;;;11.10;;
13969;SDS011;7057;49.984;8.404;2024-03-02T01:16:28;13.87;;;10.73;;
13969;SDS011;7057;49.984;8.404;2024-03-02T01:18:55;13.80;;;10.77;;
13969;SDS011;7057;49.984;8.404;2024-03-02T01:21:23;14.03;;;11.07;;
13969;SDS011;7057;49.984;8.404;2024-03-02T01:23:51;14.93;;;11.30;;
13969;SDS011;7057;49.984;8.404;2024-03-02T01:26:18;13.40;;;11.43;;
13969;SDS011;7057;49.984;8.404;2024-03-02T01:28:47;16.37;;;12.40;;
13969;SDS011;7057;49.984;8.404;2024-03-02T01:31:14;16.70;;;12.77;;
13969;SDS011;7057;49.984;8.404;2024-03-02T01:33:42;14.10;;;12.47;;
13969;SDS011;7057;49.984;8.404;2024-03-02T01:36:09;15.83;;;13.37;;
13969;SDS011;7057;49.984;8.404;2024-03-02T01:38:37;15.20;;;12.83;;
13969;SDS011;7057;49.984;8.404;2024-03-02T01:41:04;13.33;;;11.93;;
13969;SDS011;7057;49.984;8.404;2024-03-02T01:43:32;13.63;;;12.07;;
13969;SDS011;7057;49.984;8.404;2024-03-02T01:46:00;16.63;;;12.43;;
13969;SDS011;7057;49.984;8.404;2024-03-02T01:48:28;15.00;;;12.50;;
13969;SDS011;7057;49.984;8.404;2024-03-02T01:50:55;16.83;;;12.03;;
13969;SDS011;7057;49.984;8.404;2024-03-02T01:53:23;13.83;;;12.07;;
13969;SDS011;7057;49.984;8.404;2024-03-02T01:55:50;16.90;;;13.87;;
13969;SDS011;7057;49.984;8.404;2024-03-02T01:58:18;15.03;;;12.57;;
13969;SDS011;7057;49.984;8.404;2024-03-02T02:00:45;15.90;;;13.23;;
13969;SDS011;7057;49.984;8.404;2024-03-02T02:03:15;18.17;;;13.80;;
13969;SDS011;7057;49.984;8.404;2024-03-02T02:05:42;18.03;;;13.90;;
13969;SDS011;7057;49.984;8.404;2024-03-02T02:08:11;17.47;;;13.27;;
13969;SDS011;7057;49.984;8.404;2024-03-02T02:10:38;16.87;;;13.80;;
13969;SDS011;7057;49.984;8.404;2024-03-02T02:13:06;15.67;;;13.47;;
13969;SDS011;7057;49.984;8.404;2024-03-02T02:15:33;17.73;;;13.87;;
13969;SDS011;7057;49.984;8.404;2024-03-02T02:18:02;15.47;;;13.70;;
13969;SDS011;7057;49.984;8.404;2024-03-02T02:20:30;16.80;;;13.43;;
13969;SDS011;7057;49.984;8.404;2024-03-02T02:22:59;20.40;;;12.97;;
13969;SDS011;7057;49.984;8.404;2024-03-02T02:25:27;18.70;;;13.93;;
13969;SDS011;7057;49.984;8.404;2024-03-02T02:27:55;18.17;;;13.57;;
13969;SDS011;7057;49.984;8.404;2024-03-02T02:30:25;16.23;;;12.77;;
13969;SDS011;7057;49.984;8.404;2024-03-02T02:32:53;16.47;;;12.90;;
13969;SDS011;7057;49.984;8.404;2024-03-02T02:35:20;16.80;;;13.80;;
13969;SDS011;7057;49.984;8.404;2024-03-02T02:37:49;18.50;;;14.50;;
13969;SDS011;7057;49.984;8.404;2024-03-02T02:40:18;17.13;;;13.60;;
13969;SDS011;7057;49.984;8.404;2024-03-02T02:42:46;16.50;;;14.70;;
13969;SDS011;7057;49.984;8.404;2024-03-02T02:45:14;20.90;;;14.37;;
13969;SDS011;7057;49.984;8.404;2024-03-02T02:47:41;17.87;;;14.57;;
13969;SDS011;7057;49.984;8.404;2024-03-02T02:50:09;15.57;;;13.33;;
13969;SDS011;7057;49.984;8.404;2024-03-02T02:52:37;16.57;;;13.67;;
13969;SDS011;7057;49.984;8.404;2024-03-02T02:55:06;16.77;;;13.27;;
13969;SDS011;7057;49.984;8.404;2024-03-02T02:57:35;19.90;;;13.90;;
13969;SDS011;7057;49.984;8.404;2024-03-02T03:00:05;18.00;;;13.80;;
13969;SDS011;7057;49.984;8.404;2024-03-02T03:02:36;16.80;;;12.77;;
13969;SDS011;7057;49.984;8.404;2024-03-02T03:05:04;16.77;;;12.73;;
13969;SDS011;7057;49.984;8.404;2024-03-02T03:07:32;15.23;;;13.07;;
13969;SDS011;7057;49.984;8.404;2024-03-02T03:10:00;17.20;;;14.03;;
13969;SDS011;7057;49.984;8.404;2024-03-02T03:12:28;18.83;;;14.87;;
13969;SDS011;7057;49.984;8.404;2024-03-02T03:14:57;17.93;;;14.67;;
13969;SDS011;7057;49.984;8.404;2024-03-02T03:17:25;17.97;;;14.10;;
13969;SDS011;7057;49.984;8.404;2024-03-02T03:19:53;17.23;;;14.57;;
13969;SDS011;7057;49.984;8.404;2024-03-02T03:22:21;16.20;;;13.33;;
13969;SDS011;7057;49.984;8.404;2024-03-02T03:24:48;17.40;;;14.17;;
13969;SDS011;7057;49.984;8.404;2024-03-02T03:27:16;15.40;;;13.20;;
13969;SDS011;7057;49.984;8.404;2024-03-02T03:29:43;15.03;;;13.03;;
13969;SDS011;7057;49.984;8.404;2024-03-02T03:32:12;16.60;;;13.93;;
13969;SDS011;7057;49.984;8.404;2024-03-02T03:34:39;17.77;;;13.63;;
13969;SDS011;7057;49.984;8.404;2024-03-02T03:37:07;15.93;;;14.23;;
13969;SDS011;7057;49.984;8.404;2024-03-02T03:39:35;18.93;;;15.90;;
13969;SDS011;7057;49.984;8.404;2024-03-02T03:42:02;16.90;;;13.93;;
13969;SDS011;7057;49.984;8.404;2024-03-02T03:44:30;17.63;;;14.30;;
13969;SDS011;7057;49.984;8.404;2024-03-02T03:46:57;18.47;;;14.83;;
13969;SDS011;7057;49.984;8.404;2024-03-02T03:49:27;15.60;;;13.90;;
13969;SDS011;7057;49.984;8.404;2024-03-02T03:51:55;16.23;;;14.07;;
13969;SDS011;7057;49.984;8.404;2024-03-02T03:54:22;17.13;;;14.73;;
13969;SDS011;7057;49.984;8.404;2024-03-02T03:56:50;16.27;;;14.07;;
13969;SDS011;7057;49.984;8.404;2024-03-02T03:59:17;20.70;;;15.77;;
13969;SDS011;7057;49.984;8.404;2024-03-02T04:01:44;19.90;;;15.43;;
13969;SDS011;7057;49.984;8.404;2024-03-02T04:04:11;20.87;;;16.33;;
13969;SDS011;7057;49.984;8.404;2024-03-02T04:06:40;22.30;;;16.23;;
13969;SDS011;7057;49.984;8.404;2024-03-02T04:09:07;17.63;;;15.40;;
13969;SDS011;7057;49.984;8.404;2024-03-02T04:11:35;18.10;;;15.03;;
13969;SDS011;7057;49.984;8.404;2024-03-02T04:14:02;21.03;;;16.60;;
13969;SDS011;7057;49.984;8.404;2024-03-02T04:16:31;21.60;;;16.67;;
13969;SDS011;7057;49.984;8.404;2024-03-02T04:18:58;18.77;;;16.27;;
13969;SDS011;7057;49.984;8.404;2024-03-02T04:21:26;20.53;;;15.23;;
13969;SDS011;7057;49.984;8.404;2024-03-02T04:23:55;21.57;;;17.23;;
13969;SDS011;7057;49.984;8.404;2024-03-02T04:26:24;20.07;;;16.33;;
13969;SDS011;7057;49.984;8.404;2024-03-02T04:28:52;21.40;;;16.80;;
13969;SDS011;7057;49.984;8.404;2024-03-02T04:31:19;22.83;;;18.07;;
13969;SDS011;7057;49.984;8.404;2024-03-02T04:33:47;24.60;;;19.20;;
13969;SDS011;7057;49.984;8.404;2024-03-02T04:36:14;22.03;;;17.97;;
13969;SDS011;7057;49.984;8.404;2024-03-02T04:38:42;20.30;;;16.70;;
13969;SDS011;7057;49.984;8.404;2024-03-02T04:41:10;21.27;;;17.10;;
13969;SDS011;7057;49.984;8.404;2024-03-02T04:43:38;21.43;;;17.30;;
13969;SDS011;7057;49.984;8.404;2024-03-02T04:46:05;20.20;;;16.90;;
13969;SDS011;7057;49.984;8.404;2024-03-02T04:48:33;21.63;;;17.93;;
13969;SDS011;7057;49.984;8.404;2024-03-02T04:51:00;20.87;;;17.10;;
13969;SDS011;7057;49.984;8.404;2024-03-02T04:53:28;21.37;;;17.60;;
13969;SDS011;7057;49.984;8.404;2024-03-02T04:55:55;21.67;;;18.33;;
13969;SDS011;7057;49.984;8.404;2024-03-02T04:58:42;20.47;;;16.73;;
13969;SDS011;7057;49.984;8.404;2024-03-02T05:01:09;21.17;;;16.20;;
13969;SDS011;7057;49.984;8.404;2024-03-02T05:03:37;21.30;;;16.60;;
13969;SDS011;7057;49.984;8.404;2024-03-02T05:06:04;18.80;;;15.67;;
13969;SDS011;7057;49.984;8.404;2024-03-02T05:08:33;20.13;;;16.47;;
13969;SDS011;7057;49.984;8.404;2024-03-02T05:11:00;20.57;;;16.57;;
13969;SDS011;7057;49.984;8.404;2024-03-02T05:13:56;21.90;;;17.50;;
13969;SDS011;7057;49.984;8.404;2024-03-02T05:16:22;22.80;;;18.17;;
13969;SDS011;7057;49.984;8.404;2024-03-02T05:18:49;24.03;;;18.77;;
13969;SDS011;7057;49.984;8.404;2024-03-02T05:21:17;22.27;;;17.03;;
13969;SDS011;7057;49.984;8.404;2024-03-02T05:23:44;24.23;;;18.87;;
13969;SDS011;7057;49.984;8.404;2024-03-02T05:26:12;21.80;;;18.13;;
13969;SDS011;7057;49.984;8.404;2024-03-02T05:28:39;24.27;;;18.57;;
13969;SDS011;7057;49.984;8.404;2024-03-02T05:31:09;24.53;;;18.43;;
13969;SDS011;7057;49.984;8.404;2024-03-02T05:33:37;25.70;;;19.37;;
13969;SDS011;7057;49.984;8.404;2024-03-02T05:36:05;24.13;;;19.37;;
13969;SDS011;7057;49.984;8.404;2024-03-02T05:38:34;26.13;;;19.80;;
13969;SDS011;7057;49.984;8.404;2024-03-02T05:41:01;23.60;;;18.87;;
13969;SDS011;7057;49.984;8.404;2024-03-02T05:43:29;22.17;;;17.73;;
13969;SDS011;7057;49.984;8.404;2024-03-02T05:45:56;24.00;;;19.73;;
13969;SDS011;7057;49.984;8.404;2024-03-02T05:48:25;22.07;;;17.57;;
13969;SDS011;7057;49.984;8.404;2024-03-02T05:50:52;24.67;;;19.10;;
13969;SDS011;7057;49.984;8.404;2024-03-02T05:53:20;23.33;;;17.87;;
13969;SDS011;7057;49.984;8.404;2024-03-02T05:55:47;22.17;;;17.87;;
13969;SDS011;7057;49.984;8.404;2024-03-02T05:58:18;25.20;;;18.30;;
13969;SDS011;7057;49.984;8.404;2024-03-02T06:00:57;25.70;;;17.63;;
13969;SDS011;7057;49.984;8.404;2024-03-02T06:03:26;22.63;;;18.40;;
13969;SDS011;7057;49.984;8.404;2024-03-02T06:05:54;22.67;;;17.97;;
13969;SDS011;7057;49.984;8.404;2024-03-02T06:08:21;22.53;;;17.70;;
13969;SDS011;7057;49.984;8.404;2024-03-02T06:10:49;23.33;;;19.23;;
13969;SDS011;7057;49.984;8.404;2024-03-02T06:13:16;22.63;;;18.70;;
13969;SDS011;7057;49.984;8.404;2024-03-02T06:15:44;25.00;;;19.83;;
13969;SDS011;7057;49.984;8.404;2024-03-02T06:18:11;26.20;;;19.83;;
13969;SDS011;7057;49.984;8.404;2024-03-02T06:20:40;24.83;;;19.87;;
13969;SDS011;7057;49.984;8.404;2024-03-02T06:23:07;25.63;;;20.33;;
13969;SDS011;7057;49.984;8.404;2024-03-02T06:25:35;29.27;;;21.40;;
13969;SDS011;7057;49.984;8.404;2024-03-02T06:28:03;30.37;;;21.57;;
13969;SDS011;7057;49.984;8.404;2024-03-02T06:30:30;24.63;;;20.43;;
13969;SDS011;7057;49.984;8.404;2024-03-02T06:32:58;29.53;;;22.03;;
13969;SDS011;7057;49.984;8.404;2024-03-02T06:35:25;29.07;;;23.07;;
13969;SDS011;7057;49.984;8.404;2024-03-02T06:37:54;24.83;;;20.13;;
13969;SDS011;7057;49.984;8.404;2024-03-02T06:40:21;28.07;;;21.90;;
13969;SDS011;7057;49.984;8.404;2024-03-02T06:42:49;27.13;;;21.73;;
13969;SDS011;7057;49.984;8.404;2024-03-02T06:45:16;27.57;;;20.83;;
13969;SDS011;7057;49.984;8.404;2024-03-02T06:47:43;26.97;;;21.23;;
13969;SDS011;7057;49.984;8.404;2024-03-02T06:50:11;30.23;;;22.73;;
13969;SDS011;7057;49.984;8.404;2024-03-02T06:52:39;27.23;;;21.40;;
13969;SDS011;7057;49.984;8.404;2024-03-02T06:55:08;31.27;;;23.17;;
13969;SDS011;7057;49.984;8.404;2024-03-02T06:57:35;31.83;;;22.73;;
13969;SDS011;7057;49.984;8.404;2024-03-02T07:00:02;29.77;;;22.23;;
13969;SDS011;7057;49.984;8.404;2024-03-02T07:02:30;29.10;;;23.03;;
13969;SDS011;7057;49.984;8.404;2024-03-02T07:04:58;32.20;;;24.57;;
13969;SDS011;7057;49.984;8.404;2024-03-02T07:07:25;30.87;;;22.77;;
13969;SDS011;7057;49.984;8.404;2024-03-02T07:09:52;30.17;;;24.10;;
13969;SDS011;7057;49.984;8.404;2024-03-02T07:12:21;31.17;;;23.57;;
13969;SDS011;7057;49.984;8.404;2024-03-02T07:14:49;25.97;;;21.03;;
13969;SDS011;7057;49.984;8.404;2024-03-02T07:17:34;27.37;;;21.63;;
13969;SDS011;7057;49.984;8.404;2024-03-02T07:20:02;29.47;;;22.00;;
13969;SDS011;7057;49.984;8.404;2024-03-02T07:22:30;29.30;;;23.60;;
13969;SDS011;7057;49.984;8.404;2024-03-02T07:24:57;31.17;;;25.10;;
13969;SDS011;7057;49.984;8.404;2024-03-02T07:27:26;27.33;;;22.53;;
13969;SDS011;7057;49.984;8.404;2024-03-02T07:29:54;27.37;;;22.33;;
13969;SDS011;7057;49.984;8.404;2024-03-02T07:32:21;24.33;;;20.43;;
13969;SDS011;7057;49.984;8.404;2024-03-02T07:34:49;26.53;;;20.57;;
13969;SDS011;7057;49.984;8.404;2024-03-02T07:37:16;28.33;;;20.97;;
13969;SDS011;7057;49.984;8.404;2024-03-02T07:39:44;25.43;;;19.67;;
13969;SDS011;7057;49.984;8.404;2024-03-02T07:42:12;24.57;;;20.60;;
13969;SDS011;7057;49.984;8.404;2024-03-02T07:44:40;22.57;;;19.77;;
13969;SDS011;7057;49.984;8.404;2024-03-02T07:47:08;22.97;;;19.50;;
13969;SDS011;7057;49.984;8.404;2024-03-02T07:49:35;23.13;;;19.97;;
13969;SDS011;7057;49.984;8.404;2024-03-02T07:52:03;25.40;;;20.47;;
13969;SDS011;7057;49.984;8.404;2024-03-02T07:54:30;23.07;;;20.57;;
13969;SDS011;7057;49.984;8.404;2024-03-02T07:56:58;25.73;;;20.73;;
13969;SDS011;7057;49.984;8.404;2024-03-02T07:59:25;24.83;;;21.07;;
13969;SDS011;7057;49.984;8.404;2024-03-02T08:01:54;22.77;;;20.30;;
13969;SDS011;7057;49.984;8.404;2024-03-02T08:04:21;24.33;;;20.20;;
13969;SDS011;7057;49.984;8.404;2024-03-02T08:06:50;25.23;;;21.00;;
13969;SDS011;7057;49.984;8.404;2024-03-02T08:09:17;23.27;;;20.13;;
13969;SDS011;7057;49.984;8.404;2024-03-02T08:11:44;24.73;;;21.97;;
13969;SDS011;7057;49.984;8.404;2024-03-02T08:14:12;21.43;;;19.20;;
13969;SDS011;7057;49.984;8.404;2024-03-02T08:16:41;23.77;;;19.97;;
13969;SDS011;7057;49.984;8.404;2024-03-02T08:19:10;23.83;;;20.10;;
13969;SDS011;7057;49.984;8.404;2024-03-02T08:21:37;21.30;;;19.03;;
13969;SDS011;7057;49.984;8.404;2024-03-02T08:24:05;22.80;;;19.33;;
13969;SDS011;7057;49.984;8.404;2024-03-02T08:26:32;21.87;;;18.67;;
13969;SDS011;7057;49.984;8.404;2024-03-02T08:29:00;22.93;;;19.23;;
13969;SDS011;7057;49.984;8.404;2024-03-02T08:31:28;24.63;;;20.33;;
13969;SDS011;7057;49.984;8.404;2024-03-02T08:33:56;23.17;;;20.70;;
13969;SDS011;7057;49.984;8.404;2024-03-02T08:36:25;26.90;;;20.70;;
13969;SDS011;7057;49.984;8.404;2024-03-02T08:38:53;23.37;;;19.60;;
13969;SDS011;7057;49.984;8.404;2024-03-02T08:41:20;22.77;;;20.40;;
13969;SDS011;7057;49.984;8.404;2024-03-02T08:43:48;22.83;;;20.43;;
13969;SDS011;7057;49.984;8.404;2024-03-02T08:46:15;22.27;;;19.67;;
13969;SDS011;7057;49.984;8.404;2024-03-02T08:48:42;22.57;;;18.57;;
13969;SDS011;7057;49.984;8.404;2024-03-02T08:51:10;22.30;;;18.30;;
13969;SDS011;7057;49.984;8.404;2024-03-02T08:53:39;21.37;;;17.60;;
13969;SDS011;7057;49.984;8.404;2024-03-02T08:56:06;21.40;;;18.17;;
13969;SDS011;7057;49.984;8.404;2024-03-02T08:58:34;21.17;;;17.67;;
13969;SDS011;7057;49.984;8.404;2024-03-02T09:01:01;20.23;;;18.13;;
13969;SDS011;7057;49.984;8.404;2024-03-02T09:03:29;20.20;;;18.20;;
13969;SDS011;7057;49.984;8.404;2024-03-02T09:05:58;18.47;;;16.50;;
13969;SDS011;7057;49.984;8.404;2024-03-02T09:08:26;20.93;;;18.30;;
13969;SDS011;7057;49.984;8.404;2024-03-02T09:10:54;19.33;;;15.77;;
13969;SDS011;7057;49.984;8.404;2024-03-02T09:13:22;19.50;;;16.63;;
13969;SDS011;7057;49.984;8.404;2024-03-02T09:15:49;21.37;;;17.90;;
13969;SDS011;7057;49.984;8.404;2024-03-02T09:18:17;19.20;;;16.13;;
13969;SDS011;7057;49.984;8.404;2024-03-02T09:20:44;20.07;;;15.97;;
13969;SDS011;7057;49.984;8.404;2024-03-02T09:23:12;19.30;;;17.07;;
13969;SDS011;7057;49.984;8.404;2024-03-02T09:25:39;19.93;;;15.47;;
13969;SDS011;7057;49.984;8.404;2024-03-02T09:28:08;17.63;;;15.43;;
13969;SDS011;7057;49.984;8.404;2024-03-02T09:30:36;19.07;;;15.13;;
13969;SDS011;7057;49.984;8.404;2024-03-02T09:33:03;17.10;;;14.90;;
13969;SDS011;7057;49.984;8.404;2024-03-02T09:35:31;16.23;;;14.17;;
13969;SDS011;7057;49.984;8.404;2024-03-02T09:37:59;15.17;;;13.50;;
13969;SDS011;7057;49.984;8.404;2024-03-02T09:40:26;14.43;;;12.20;;
13969;SDS011;7057;49.984;8.404;2024-03-02T09:42:54;13.53;;;12.13;;
13969;SDS011;7057;49.984;8.404;2024-03-02T09:45:24;14.57;;;12.73;;
13969;SDS011;7057;49.984;8.404;2024-03-02T09:47:51;15.47;;;12.57;;
13969;SDS011;7057;49.984;8.404;2024-03-02T09:50:20;15.20;;;12.50;;
13969;SDS011;7057;49.984;8.404;2024-03-02T09:52:48;13.43;;;11.90;;
13969;SDS011;7057;49.984;8.404;2024-03-02T09:55:16;13.10;;;11.57;;
13969;SDS011;7057;49.984;8.404;2024-03-02T09:57:44;14.07;;;12.10;;
13969;SDS011;7057;49.984;8.404;2024-03-02T10:00:14;12.53;;;11.10;;
13969;SDS011;7057;49.984;8.404;2024-03-02T10:02:43;14.40;;;11.90;;
13969;SDS011;7057;49.984;8.404;2024-03-02T10:05:12;12.87;;;11.47;;
13969;SDS011;7057;49.984;8.404;2024-03-02T10:07:39;12.73;;;11.37;;
13969;SDS011;7057;49.984;8.404;2024-03-02T10:10:12;14.70;;;11.80;;
13969;SDS011;7057;49.984;8.404;2024-03-02T10:12:40;14.53;;;11.50;;
13969;SDS011;7057;49.984;8.404;2024-03-02T10:15:07;13.17;;;11.60;;
13969;SDS011;7057;49.984;8.404;2024-03-02T10:17:35;11.40;;;10.30;;
13969;SDS011;7057;49.984;8.404;2024-03-02T10:20:23;12.07;;;10.77;;
13969;SDS011;7057;49.984;8.404;2024-03-02T10:22:51;12.77;;;10.43;;
13969;SDS011;7057;49.984;8.404;2024-03-02T10:25:31;10.90;;;9.80;;
13969;SDS011;7057;49.984;8.404;2024-03-02T10:27:58;11.70;;;10.30;;
13969;SDS011;7057;49.984;8.404;2024-03-02T10:30:26;12.70;;;10.53;;
13969;SDS011;7057;49.984;8.404;2024-03-02T10:32:54;12.10;;;10.80;;
13969;SDS011;7057;49.984;8.404;2024-03-02T10:35:23;12.07;;;9.97;;
13969;SDS011;7057;49.984;8.404;2024-03-02T10:37:51;10.90;;;9.73;;
13969;SDS011;7057;49.984;8.404;2024-03-02T10:40:21;12.10;;;9.80;;
13969;SDS011;7057;49.984;8.404;2024-03-02T10:42:49;11.47;;;9.87;;
13969;SDS011;7057;49.984;8.404;2024-03-02T10:45:17;12.37;;;10.77;;
13969;SDS011;7057;49.984;8.404;2024-03-02T10:47:46;10.70;;;9.60;;
13969;SDS011;7057;49.984;8.404;2024-03-02T10:50:14;10.93;;;9.73;;
13969;SDS011;7057;49.984;8.404;2024-03-02T10:52:42;10.30;;;9.23;;
13969;SDS011;7057;49.984;8.404;2024-03-02T10:55:10;10.50;;;9.40;;
13969;SDS011;7057;49.984;8.404;2024-03-02T10:57:41;10.87;;;9.57;;
13969;SDS011;7057;49.984;8.404;2024-03-02T11:00:11;10.67;;;9.40;;
13969;SDS011;7057;49.984;8.404;2024-03-02T11:02:45;10.73;;;9.33;;
13969;SDS011;7057;49.984;8.404;2024-03-02T11:05:14;10.93;;;8.73;;
13969;SDS011;7057;49.984;8.404;2024-03-02T11:07:47;11.70;;;9.60;;
13969;SDS011;7057;49.984;8.404;2024-03-02T11:10:15;9.73;;;8.73;;
13969;SDS011;7057;49.984;8.404;2024-03-02T11:12:43;11.57;;;9.10;;
13969;SDS011;7057;49.984;8.404;2024-03-02T11:15:17;10.53;;;8.27;;
13969;SDS011;7057;49.984;8.404;2024-03-02T11:17:45;9.87;;;8.87;;
13969;SDS011;7057;49.984;8.404;2024-03-02T11:20:13;9.37;;;8.43;;
13969;SDS011;7057;49.984;8.404;2024-03-02T11:22:44;9.97;;;8.90;;
13969;SDS011;7057;49.984;8.404;2024-03-02T11:25:23;9.47;;;8.53;;
13969;SDS011;7057;49.984;8.404;2024-03-02T11:28:01;10.27;;;8.30;;
13969;SDS011;7057;49.984;8.404;2024-03-02T11:33:15;9.27;;;8.27;;
13969;SDS011;7057;49.984;8.404;2024-03-02T11:35:49;9.90;;;7.80;;
13969;SDS011;7057;49.984;8.404;2024-03-02T11:38:17;8.13;;;7.17;;
13969;SDS011;7057;49.984;8.404;2024-03-02T11:40:46;9.77;;;7.43;;
13969;SDS011;7057;49.984;8.404;2024-03-02T11:43:14;8.73;;;7.70;;
13969;SDS011;7057;49.984;8.404;2024-03-02T11:45:41;8.43;;;7.20;;
13969;SDS011;7057;49.984;8.404;2024-03-02T11:48:11;9.10;;;7.90;;
13969;SDS011;7057;49.984;8.404;2024-03-02T11:50:40;7.63;;;6.60;;
13969;SDS011;7057;49.984;8.404;2024-03-02T11:53:08;7.80;;;7.00;;
13969;SDS011;7057;49.984;8.404;2024-03-02T11:55:36;7.80;;;6.13;;
13969;SDS011;7057;49.984;8.404;2024-03-02T11:58:06;6.90;;;6.23;;
13969;SDS011;7057;49.984;8.404;2024-03-02T12:00:33;6.97;;;6.17;;
13969;SDS011;7057;49.984;8.404;2024-03-02T12:03:02;7.67;;;5.90;;
13969;SDS011;7057;49.984;8.404;2024-03-02T12:05:30;6.67;;;5.70;;
13969;SDS011;7057;49.984;8.404;2024-03-02T12:07:58;7.70;;;5.90;;
13969;SDS011;7057;49.984;8.404;2024-03-02T12:10:26;5.83;;;4.90;;
13969;SDS011;7057;49.984;8.404;2024-03-02T12:12:55;5.93;;;4.83;;
13969;SDS011;7057;49.984;8.404;2024-03-02T12:15:25;6.23;;;5.20;;
13969;SDS011;7057;49.984;8.404;2024-03-02T12:17:53;5.50;;;5.00;;
13969;SDS011;7057;49.984;8.404;2024-03-02T12:20:20;5.57;;;4.97;;
13969;SDS011;7057;49.984;8.404;2024-03-02T12:22:49;5.03;;;4.53;;
13969;SDS011;7057;49.984;8.404;2024-03-02T12:25:17;4.73;;;4.23;;
13969;SDS011;7057;49.984;8.404;2024-03-02T12:27:45;5.23;;;4.43;;
13969;SDS011;7057;49.984;8.404;2024-03-02T12:30:13;4.73;;;4.23;;
13969;SDS011;7057;49.984;8.404;2024-03-02T12:32:41;4.20;;;3.70;;
13969;SDS011;7057;49.984;8.404;2024-03-02T12:35:09;4.20;;;3.53;;
13969;SDS011;7057;49.984;8.404;2024-03-02T12:37:43;3.17;;;2.87;;
13969;SDS011;7057;49.984;8.404;2024-03-02T12:40:11;4.87;;;3.17;;
13969;SDS011;7057;49.984;8.404;2024-03-02T12:42:38;4.20;;;3.00;;
13969;SDS011;7057;49.984;8.404;2024-03-02T12:45:07;7.83;;;7.07;;
13969;SDS011;7057;49.984;8.404;2024-03-02T12:47:34;3.50;;;3.20;;
13969;SDS011;7057;49.984;8.404;2024-03-02T12:50:04;3.97;;;3.00;;
13969;SDS011;7057;49.984;8.404;2024-03-02T12:52:31;3.67;;;3.03;;
13969;SDS011;7057;49.984;8.404;2024-03-02T12:54:59;4.07;;;3.03;;
13969;SDS011;7057;49.984;8.404;2024-03-02T12:57:28;3.17;;;2.88;;
13969;SDS011;7057;49.984;8.404;2024-03-02T12:59:59;3.38;;;2.92;;
13969;SDS011;7057;49.984;8.404;2024-03-02T13:02:30;3.17;;;2.88;;
13969;SDS011;7057;49.984;8.404;2024-03-02T13:04:58;3.35;;;3.03;;
13969;SDS011;7057;49.984;8.404;2024-03-02T13:07:27;3.78;;;3.40;;
13969;SDS011;7057;49.984;8.404;2024-03-02T13:09:54;3.37;;;2.87;;
13969;SDS011;7057;49.984;8.404;2024-03-02T13:12:22;3.67;;;3.08;;
13969;SDS011;7057;49.984;8.404;2024-03-02T13:14:51;3.92;;;3.03;;
13969;SDS011;7057;49.984;8.404;2024-03-02T13:17:18;3.63;;;3.05;;
13969;SDS011;7057;49.984;8.404;2024-03-02T13:19:52;3.78;;;3.22;;
13969;SDS011;7057;49.984;8.404;2024-03-02T13:22:20;3.20;;;2.93;;
13969;SDS011;7057;49.984;8.404;2024-03-02T13:24:49;3.25;;;2.95;;
13969;SDS011;7057;49.984;8.404;2024-03-02T13:27:16;3.33;;;2.72;;
13969;SDS011;7057;49.984;8.404;2024-03-02T13:29:45;3.50;;;2.60;;
13969;SDS011;7057;49.984;8.404;2024-03-02T13:32:13;4.65;;;3.08;;
13969;SDS011;7057;49.984;8.404;2024-03-02T13:34:41;4.50;;;3.10;;
13969;SDS011;7057;49.984;8.404;2024-03-02T13:37:08;6.88;;;3.05;;
13969;SDS011;7057;49.984;8.404;2024-03-02T13:39:36;3.97;;;2.85;;
13969;SDS011;7057;49.984;8.404;2024-03-02T13:42:09;3.95;;;3.00;;
13969;SDS011;7057;49.984;8.404;2024-03-02T13:44:38;2.97;;;2.67;;
13969;SDS011;7057;49.984;8.404;2024-03-02T13:47:06;4.65;;;2.80;;
13969;SDS011;7057;49.984;8.404;2024-03-02T13:49:33;3.03;;;2.70;;
13969;SDS011;7057;49.984;8.404;2024-03-02T13:52:02;5.32;;;2.85;;
13969;SDS011;7057;49.984;8.404;2024-03-02T13:54:36;2.92;;;2.55;;
13969;SDS011;7057;49.984;8.404;2024-03-02T13:57:05;3.20;;;2.90;;
13969;SDS011;7057;49.984;8.404;2024-03-02T13:59:33;3.50;;;3.20;;
13969;SDS011;7057;49.984;8.404;2024-03-02T14:02:01;4.15;;;2.72;;
13969;SDS011;7057;49.984;8.404;2024-03-02T14:04:30;4.50;;;3.10;;
13969;SDS011;7057;49.984;8.404;2024-03-02T14:06:58;3.10;;;2.80;;
13969;SDS011;7057;49.984;8.404;2024-03-02T14:09:26;3.22;;;2.90;;
13969;SDS011;7057;49.984;8.404;2024-03-02T14:11:53;4.50;;;3.33;;
13969;SDS011;7057;49.984;8.404;2024-03-02T14:14:21;3.97;;;2.85;;
13969;SDS011;7057;49.984;8.404;2024-03-02T14:16:50;3.55;;;2.78;;
13969;SDS011;7057;49.984;8.404;2024-03-02T14:19:18;3.17;;;2.80;;
13969;SDS011;7057;49.984;8.404;2024-03-02T14:21:46;3.58;;;2.30;;
13969;SDS011;7057;49.984;8.404;2024-03-02T14:24:14;2.55;;;2.30;;
13969;SDS011;7057;49.984;8.404;2024-03-02T14:26:41;2.17;;;1.98;;
13969;SDS011;7057;49.984;8.404;2024-03-02T14:29:09;3.05;;;2.33;;
13969;SDS011;7057;49.984;8.404;2024-03-02T14:31:36;2.47;;;2.10;;
13969;SDS011;7057;49.984;8.404;2024-03-02T14:34:05;2.15;;;1.70;;
13969;SDS011;7057;49.984;8.404;2024-03-02T14:36:33;1.90;;;1.80;;
13969;SDS011;7057;49.984;8.404;2024-03-02T14:39:00;1.73;;;1.63;;
13969;SDS011;7057;49.984;8.404;2024-03-02T14:41:29;1.85;;;1.70;;
13969;SDS011;7057;49.984;8.404;2024-03-02T14:43:57;2.10;;;1.40;;
13969;SDS011;7057;49.984;8.404;2024-03-02T14:46:24;2.42;;;1.98;;
13969;SDS011;7057;49.984;8.404;2024-03-02T14:48:51;2.33;;;2.05;;
13969;SDS011;7057;49.984;8.404;2024-03-02T14:51:20;3.47;;;2.00;;